• Join FlightAware (Why Join?)
  • Login
  • US Flag 
02:17PM EDT


 

Airport Tracker/Info


-or-


 

Live Flight TrackerFlight Track Log ✈ QXE2396 ✈ 30-Apr-2013 ✈ KSEA - KMSO

Flight Track Log - Related Links

Times and Time Zones

All times are in EDT time to prevent confusion due to time zone crossing. See the QXE2396 flight status page for this flight to view local times or setup timezone preferences in your user account.

Time Position Orientation Groundspeed Altitude Reporting Facility
EDT Latitude Longitude Course Direction KTS MPH feet Rate Location/Type
09:19PM 47.4669 -122.3125 92° East 144 166 1,200  Level Seattle Center
09:20PM 47.5111 -122.2947 15° North 195 224 2,700 1,680 Climbing Seattle Center
09:21PM 47.5225 -122.2161 78° East 238 274 4,500 1,800 Climbing Seattle Center
09:21PM 47.5142 -122.1836 111° Southeast 230 265 5,100 1,740 Climbing Seattle Center
09:22PM 47.4911 -122.0883 110° East 248 285 7,000 1,620 Climbing Seattle Center
09:23PM 47.4733 -121.9839 104° East 264 304 8,500 1,500 Climbing Seattle Center
09:24PM 47.4544 -121.8719 104° East 283 326 10,100 1,500 Climbing Seattle Center
09:25PM 47.4255 -121.5495 92° East  Level Estimated
09:25PM 47.4344 -121.7567 104° East 291 335 11,600  Level Seattle Center
09:26PM 47.4261 -121.6353 96° East 304 350 13,100 1,440 Climbing Seattle Center
09:27PM 47.4264 -121.5136 90° East 303 349 14,600 1,380 Climbing Seattle Center
09:29PM 47.4244 -121.3839 91° East 312 359 16,000 1,500 Climbing Seattle Center
09:30PM 47.4211 -121.2336 92° East 316 364 17,700 1,200 Climbing Seattle Center
09:31PM 47.4183 -121.1036 92° East 322 371 18,500 900 Climbing Seattle Center
09:32PM 47.4169 -120.9722 91° East 323 372 19,600 1,080 Climbing Seattle Center
09:33PM 47.4147 -120.8417 91° East 324 373 20,800 1,080 Climbing Seattle Center
09:34PM 47.4108 -120.7139 93° East 323 372 21,900 1,020 Climbing Seattle Center
09:35PM 47.4075 -120.5842 92° East 319 367 22,900 960 Climbing Seattle Center
09:36PM 47.4056 -120.4575 91° East 312 359 23,900 780 Climbing Seattle Center
09:37PM 47.4025 -120.3283 92° East 313 360 24,600 480 Climbing Seattle Center
09:38PM 47.3997 -120.1978 92° East 318 366 24,900 180 Climbing Seattle Center
09:39PM 47.3950 -120.0314 92° East 338 389 25,000  Climbing Seattle Center
09:40PM 47.3917 -119.8850 92° East 354 407 25,000  Level Seattle Center
09:41PM 47.3858 -119.7358 93° East 364 419 25,000  Level Seattle Center
09:42PM 47.3819 -119.5864 92° East 367 422 25,000  Level Seattle Center
09:43PM 47.3778 -119.4344 92° East 371 427 25,000  Level Seattle Center
09:44PM 47.3808 -119.2858 88° East 366 421 25,000  Level Seattle Center
09:45PM 47.3875 -119.1369 86° East 364 419 25,000  Level Seattle Center
09:46PM 47.3917 -118.9889 88° East 363 418 25,000  Level Seattle Center
09:47PM 47.3958 -118.8375 88° East 368 423 25,000  Level Seattle Center
09:48PM 47.4011 -118.6858 87° East 370 426 25,000 -60 Level Seattle Center
09:49PM 47.4056 -118.5353 87° East 369 425 24,900  Descending Seattle Center
09:50PM 47.4100 -118.3861 87° East 367 422 25,000  Climbing Seattle Center
09:51PM 47.4147 -118.2375 87° East 363 418 25,000 -60 Level Seattle Center
09:52PM 47.4186 -118.0875 88° East 368 423 24,900  Descending Seattle Center
09:53PM 47.4219 -117.9386 88° East 366 421 25,000  Climbing Seattle Center
09:54PM 47.4269 -117.7592 88° East 366 421 24,900  Descending Seattle Center
09:55PM 47.4306 -117.6131 88° East 360 414 25,000  Climbing Seattle Center
09:56PM 47.4339 -117.4672 88° East 358 412 25,000  Level Seattle Center
09:57PM 47.4372 -117.3225 88° East 356 410 25,000  Level Seattle Center
09:58PM 47.4392 -117.1792 89° East 354 407 25,000  Level Seattle Center
09:59PM 47.4414 -117.0367 89° East 357 411 25,000  Level Seattle Center
10:00PM 47.4444 -116.8944 88° East 354 407 25,000  Level Seattle Center
10:01PM 47.4472 -116.7194 89° East 359 413 25,000  Level Seattle Center
10:02PM 47.4489 -116.5731 89° East 359 413 25,000  Level Seattle Center
10:03PM 47.4506 -116.4256 89° East 360 414 25,000 -60 Level Seattle Center
10:04PM 47.4511 -116.2792 90° East 359 413 24,900  Descending Seattle Center
10:05PM 47.4528 -116.1308 89° East 361 415 25,000  Climbing Seattle Center
10:06PM 47.4544 -115.9825 89° East 362 417 25,000 -60 Level Seattle Center
10:07PM 47.4550 -115.8342 90° East 362 417 24,900  Descending Seattle Center
10:08PM 47.4561 -115.6819 89° East 357 411 25,000  Climbing Seattle Center
10:09PM 47.4267 -115.5478 108° East 358 412 25,000 -240 Level Seattle Center
10:10PM 47.3789 -115.4197 119° Southeast 358 412 24,600 -1,560 Descending Seattle Center
10:12PM 47.3072 -115.1700 113° Southeast 321 369 20,300 -2,100 Descending Seattle Center
10:13PM 47.2614 -115.0569 121° Southeast 322 371 18,300 -1,860 Descending Seattle Center
10:14PM 47.2356 -114.9406 108° East 309 356 16,600 -1,860 Descending Seattle Center
10:15PM 47.2336 -114.8211 91° East 295 339 14,600 -1,980 Descending Seattle Center
10:16PM 47.2322 -114.7011 91° East 294 338 12,700 -1,680 Descending Seattle Center
10:18PM 47.1806 -114.5422 116° Southeast 279 321 10,500 -1,140 Descending Salt Lake Center
10:19PM 47.1344 -114.4694 133° Southeast 226 260 9,900 -960 Descending Salt Lake Center
10:20PM 47.0956 -114.4014 130° Southeast 218 251 8,600 -1,200 Descending Salt Lake Center
10:21PM 47.0611 -114.3425 131° Southeast 195 224 7,500 -1,140 Descending Salt Lake Center
10:22PM 47.0264 -114.2808 130° Southeast 185 213 6,400 -1,080 Descending Salt Lake Center
10:23PM 46.9947 -114.2275 131° Southeast 177 204 5,400 -900 Descending Salt Lake Center
10:24PM 46.9672 -114.1800 130° Southeast 160 184 4,600 -840 Descending Salt Lake Center
10:25PM 46.9428 -114.1381 130° Southeast 141 162 3,800 -720 Descending Salt Lake Center
10:26PM 46.9183 -114.0972 131° Southeast 140 161 3,200 -600 Descending Salt Lake Center